Time;durP1;ratioP1;P1;durP2;ratioP2;P2;SDS_P1;SDS_P2;PMS_P1;PMS_P2;Temp;Humidity;BMP_temperature;BMP_pressure;BME280_temperature;BME280_humidity;BME280_pressure;Samples;Min_cycle;Max_cycle;Signal;HPM_P1;HPM_P2
2023/03/12 00:01:14;;;;;;;0.20;0.20;;;-1.20;99.90;21.70;100123.00;;;;5071635;28;20204;-71
2023/03/12 00:03:43;;;;;;;0.10;0.10;;;-1.20;99.90;21.80;100164.00;;;;5072683;28;20684;-71
2023/03/12 00:06:11;;;;;;;0.10;0.10;;;-1.20;99.90;21.80;100166.00;;;;5069798;28;20199;-71
2023/03/12 00:08:40;;;;;;;0.20;0.20;;;-1.20;99.90;21.80;100141.00;;;;5070879;28;20213;-72
2023/03/12 00:11:10;;;;;;;0.20;0.20;;;-1.20;99.90;21.80;100169.00;;;;5070015;28;20256;-71
2023/03/12 00:13:39;;;;;;;0.13;0.13;;;-1.20;99.90;21.80;100199.00;;;;5071850;28;20224;-71
2023/03/12 00:16:10;;;;;;;0.20;0.20;;;-1.20;99.90;21.80;100218.00;;;;5073180;28;20229;-71
2023/03/12 00:18:41;;;;;;;0.20;0.20;;;-1.20;99.90;21.80;100173.00;;;;5082531;28;20201;-71
2023/03/12 00:21:10;;;;;;;0.10;0.10;;;-1.20;99.90;21.80;100182.00;;;;5073106;28;20194;-72
2023/03/12 00:23:38;;;;;;;0.20;0.20;;;-1.20;99.90;21.70;100170.00;;;;5077371;28;20757;-71
2023/03/12 00:26:10;;;;;;;0.10;0.10;;;-1.20;99.90;21.70;100154.00;;;;5072674;28;20201;-70
2023/03/12 00:28:38;;;;;;;0.10;0.10;;;-1.30;99.90;21.80;100205.00;;;;5071550;28;20213;-71
2023/03/12 00:31:15;;;;;;;0.10;0.10;;;-1.20;99.90;21.80;100183.00;;;;5072971;28;20189;-71
2023/03/12 00:33:45;;;;;;;0.10;0.10;;;-1.20;99.90;21.80;100186.00;;;;5067382;28;21068;-70
2023/03/12 00:36:13;;;;;;;0.10;0.10;;;-1.30;99.90;21.70;100180.00;;;;5063013;28;20204;-71
2023/03/12 00:38:42;;;;;;;0.10;0.10;;;-1.30;99.90;21.70;100224.00;;;;5065409;28;20205;-71
2023/03/12 00:41:11;;;;;;;0.10;0.10;;;-1.30;99.90;21.70;100219.00;;;;5072692;28;20272;-71
2023/03/12 00:43:39;;;;;;;0.15;0.15;;;-1.30;99.90;21.70;100186.00;;;;5075329;28;20233;-71
2023/03/12 00:46:07;;;;;;;0.10;0.10;;;-1.30;99.90;21.60;100156.00;;;;5069644;28;20684;-72
2023/03/12 00:48:35;;;;;;;0.15;0.15;;;-1.40;99.90;21.60;100193.00;;;;5065912;28;20664;-71
2023/03/12 00:51:05;;;;;;;0.10;0.10;;;-1.40;99.90;21.60;100181.00;;;;5072637;28;20232;-71
2023/03/12 00:53:33;;;;;;;0.10;0.10;;;-1.40;99.90;21.60;100233.00;;;;5083062;22;20228;-73
2023/03/12 00:56:01;;;;;;;0.10;0.10;;;-1.40;99.90;21.60;100224.00;;;;5049486;28;20200;-73
2023/03/12 00:58:31;;;;;;;0.10;0.10;;;-1.40;99.90;21.60;100445.00;;;;5046033;28;20294;-71
2023/03/12 01:00:59;;;;;;;0.10;0.10;;;-1.40;99.90;21.60;100515.00;;;;5049771;28;20207;-71
2023/03/12 01:03:27;;;;;;;0.20;0.20;;;-1.40;99.90;21.60;100343.00;;;;5044843;28;20195;-71
2023/03/12 01:05:55;;;;;;;0.10;0.10;;;-1.40;99.90;21.60;100467.00;;;;5028496;28;20202;-71
2023/03/12 01:08:25;;;;;;;0.20;0.20;;;-1.50;99.90;21.60;100603.00;;;;5028587;28;20206;-71
2023/03/12 01:10:53;;;;;;;0.10;0.10;;;-1.40;99.90;21.70;100382.00;;;;5017342;28;20223;-71
2023/03/12 01:13:22;;;;;;;0.10;0.10;;;-1.30;99.90;21.70;100446.00;;;;5027582;28;20203;-71
2023/03/12 01:15:50;;;;;;;0.10;0.10;;;-1.30;99.90;21.70;100403.00;;;;5023190;28;20211;-71
2023/03/12 01:18:18;;;;;;;0.10;0.10;;;-1.20;99.90;21.70;100331.00;;;;5026282;28;20609;-70
2023/03/12 01:20:46;;;;;;;0.17;0.17;;;-1.20;99.90;21.70;100333.00;;;;5024073;28;20204;-71
2023/03/12 01:23:14;;;;;;;0.17;0.17;;;-1.30;99.90;21.60;100275.00;;;;5027740;28;20690;-73
2023/03/12 01:25:46;;;;;;;0.15;0.15;;;-1.30;99.90;21.70;100337.00;;;;5031700;28;20203;-73
2023/03/12 01:28:14;;;;;;;0.10;0.10;;;-1.30;99.90;21.60;100442.00;;;;5023821;28;20237;-73
2023/03/12 01:30:42;;;;;;;0.10;0.10;;;-1.30;99.90;21.60;100509.00;;;;5032476;28;20318;-73
2023/03/12 01:33:10;;;;;;;0.20;0.20;;;-1.40;99.90;21.50;100563.00;;;;5020686;28;20195;-73
2023/03/12 01:35:39;;;;;;;0.10;0.10;;;-1.40;99.90;21.60;100114.00;;;;5029411;28;20246;-73
2023/03/12 01:38:10;;;;;;;0.10;0.10;;;-1.50;99.90;21.50;100110.00;;;;5020448;28;20214;-73
2023/03/12 01:40:39;;;;;;;0.10;0.10;;;-1.60;99.90;21.50;100070.00;;;;5026392;28;20211;-72
2023/03/12 01:43:29;;;;;;;0.10;0.10;;;-1.60;99.90;21.50;100063.00;;;;5022536;28;20203;-72
2023/03/12 01:46:23;;;;;;;0.10;0.10;;;-1.60;99.90;21.50;100043.00;;;;5028400;28;20211;-72
2023/03/12 01:48:59;;;;;;;0.20;0.20;;;-1.60;99.90;21.50;100052.00;;;;5027474;28;20297;-72
2023/03/12 01:51:35;;;;;;;0.10;0.10;;;-1.60;99.90;21.50;100058.00;;;;5025193;28;20277;-72
2023/03/12 01:54:08;;;;;;;0.20;0.20;;;-1.60;99.90;21.50;100053.00;;;;5037880;28;20233;-72
2023/03/12 01:56:38;;;;;;;0.10;0.10;;;-1.60;99.90;21.60;100047.00;;;;5023584;28;20211;-71
2023/03/12 01:59:18;;;;;;;0.10;0.10;;;-1.50;99.90;21.60;100054.00;;;;5032258;28;20277;-71
2023/03/12 02:01:48;;;;;;;0.15;0.15;;;-1.40;99.90;21.70;100099.00;;;;5034610;28;20731;-71
2023/03/12 02:04:20;;;;;;;0.20;0.20;;;-1.40;99.90;21.80;100081.00;;;;5029504;28;20222;-71
2023/03/12 02:06:57;;;;;;;0.10;0.10;;;-1.30;99.90;21.70;100114.00;;;;5026130;28;20681;-72
2023/03/12 02:09:26;;;;;;;0.10;0.10;;;-1.30;99.90;21.70;100117.00;;;;5026984;28;20195;-71
2023/03/12 02:11:54;;;;;;;0.10;0.10;;;-1.30;99.90;21.60;100086.00;;;;5029968;28;20566;-71
2023/03/12 02:14:24;;;;;;;0.20;0.20;;;-1.40;99.90;21.60;100062.00;;;;5024667;28;20219;-71
2023/03/12 02:16:53;;;;;;;0.20;0.20;;;-1.50;99.90;21.50;100048.00;;;;5029458;28;20215;-71
2023/03/12 02:19:32;;;;;;;0.20;0.20;;;-1.50;99.90;21.50;100034.00;;;;5028159;28;20678;-71
2023/03/12 02:22:01;;;;;;;0.10;0.10;;;-1.50;99.90;21.60;100053.00;;;;5029246;28;20684;-71
2023/03/12 02:24:39;;;;;;;0.10;0.10;;;-1.50;99.90;21.50;100076.00;;;;5023939;28;20235;-71
2023/03/12 02:27:11;;;;;;;0.10;0.10;;;-1.50;99.90;21.50;100043.00;;;;5028214;28;20191;-71
2023/03/12 02:29:44;;;;;;;0.10;0.10;;;-1.60;99.90;21.50;100045.00;;;;5036764;28;20199;-71
2023/03/12 02:32:23;;;;;;;0.20;0.20;;;-1.60;99.90;21.50;100023.00;;;;5013954;28;20286;-72
2023/03/12 02:34:51;;;;;;;0.10;0.10;;;-1.60;99.90;21.50;100019.00;;;;5028684;28;20254;-72
2023/03/12 02:37:19;;;;;;;0.20;0.20;;;-1.60;99.90;21.50;100012.00;;;;5021401;28;20199;-71
2023/03/12 02:40:00;;;;;;;0.20;0.20;;;-1.70;99.90;21.40;100026.00;;;;5027838;28;20200;-71
2023/03/12 02:42:29;;;;;;;0.20;0.20;;;-1.70;99.90;21.50;100050.00;;;;5021784;28;20198;-71
2023/03/12 02:44:58;;;;;;;0.20;0.20;;;-1.60;99.90;21.50;100093.00;;;;5030646;28;20326;-71
2023/03/12 02:47:26;;;;;;;0.20;0.20;;;-1.60;99.90;21.40;100062.00;;;;5027604;28;20221;-71
2023/03/12 02:49:54;;;;;;;0.20;0.20;;;-1.60;99.90;21.40;100023.00;;;;5031833;28;20199;-71
2023/03/12 02:52:22;;;;;;;0.10;0.10;;;-1.70;99.90;21.40;100023.00;;;;5024578;28;20199;-71
2023/03/12 02:54:51;;;;;;;0.10;0.10;;;-1.80;99.90;21.40;100005.00;;;;5020856;28;20230;-71
2023/03/12 02:57:19;;;;;;;0.10;0.10;;;-1.80;99.90;21.40;100058.00;;;;5014328;28;20558;-71
2023/03/12 02:59:48;;;;;;;0.10;0.10;;;-1.80;99.90;21.40;100088.00;;;;5029851;28;20206;-71
2023/03/12 03:02:16;;;;;;;0.10;0.10;;;-1.80;99.90;21.40;100042.00;;;;5022982;28;20444;-71
2023/03/12 03:04:44;;;;;;;0.20;0.20;;;-1.80;99.90;21.40;100021.00;;;;5025298;28;20236;-71
2023/03/12 03:07:13;;;;;;;0.10;0.10;;;-1.90;99.90;21.30;100091.00;;;;5020440;28;20202;-72
2023/03/12 03:09:41;;;;;;;0.20;0.20;;;-1.90;99.90;21.40;100038.00;;;;5028556;28;20214;-71
2023/03/12 03:12:09;;;;;;;0.13;0.13;;;-1.80;99.90;21.40;100065.00;;;;5020572;28;20480;-71
2023/03/12 03:14:37;;;;;;;0.20;0.20;;;-1.80;99.90;21.40;100050.00;;;;5028834;28;20235;-71
2023/03/12 03:17:07;;;;;;;0.20;0.20;;;-1.80;99.90;21.40;100077.00;;;;5020337;28;20188;-71
2023/03/12 03:19:35;;;;;;;0.20;0.20;;;-1.70;99.90;21.40;100085.00;;;;5030862;28;20759;-71
2023/03/12 03:22:04;;;;;;;0.10;0.10;;;-1.70;99.90;21.40;100076.00;;;;5021767;28;20212;-71
2023/03/12 03:24:32;;;;;;;0.10;0.10;;;-1.70;99.90;21.50;100075.00;;;;5028097;28;20231;-71
2023/03/12 03:27:00;;;;;;;0.15;0.15;;;-1.70;99.90;21.50;100056.00;;;;5019126;28;20249;-71
2023/03/12 03:29:28;;;;;;;0.10;0.10;;;-1.60;99.90;21.50;100053.00;;;;5033779;28;20271;-71
2023/03/12 03:31:56;;;;;;;0.10;0.10;;;-1.60;99.90;21.50;100093.00;;;;5021197;28;20220;-71
2023/03/12 03:34:26;;;;;;;0.10;0.10;;;-1.50;99.90;21.50;100109.00;;;;5024362;28;20600;-71
2023/03/12 03:36:54;;;;;;;0.10;0.10;;;-1.50;99.90;21.60;100100.00;;;;5044062;28;20212;-70
2023/03/12 03:39:24;;;;;;;0.20;0.20;;;-1.40;99.90;21.60;100104.00;;;;5032380;28;20230;-70
2023/03/12 03:41:52;;;;;;;0.10;0.10;;;-1.40;99.90;21.60;100103.00;;;;5040478;28;20207;-70
2023/03/12 03:44:23;;;;;;;0.10;0.10;;;-1.40;99.90;21.60;100081.00;;;;5031918;28;20223;-70
2023/03/12 03:46:52;;;;;;;0.10;0.10;;;-1.40;99.90;21.60;100103.00;;;;5027794;28;20252;-70
2023/03/12 03:49:20;;;;;;;0.10;0.10;;;-1.40;99.90;21.60;100110.00;;;;5039097;28;20210;-71
2023/03/12 03:51:50;;;;;;;0.10;0.10;;;-1.40;99.90;21.50;100102.00;;;;5029820;28;20711;-71
2023/03/12 03:54:24;;;;;;;0.10;0.10;;;-1.40;99.90;21.50;100102.00;;;;5023717;28;20702;-71
2023/03/12 03:56:53;;;;;;;0.10;0.10;;;-1.50;99.90;21.50;100066.00;;;;5026915;28;20206;-71
2023/03/12 03:59:21;;;;;;;0.10;0.10;;;-1.60;99.90;21.50;100053.00;;;;5027825;28;20249;-71
2023/03/12 04:01:49;;;;;;;0.13;0.13;;;-1.60;99.90;21.50;100029.00;;;;5023544;28;20734;-71
2023/03/12 04:04:17;;;;;;;0.17;0.17;;;-1.60;99.90;21.50;100052.00;;;;5023105;28;20759;-70
2023/03/12 04:06:45;;;;;;;0.10;0.10;;;-1.60;99.90;21.50;100062.00;;;;5022444;28;20785;-70
2023/03/12 04:09:15;;;;;;;0.10;0.10;;;-1.60;99.90;21.50;100097.00;;;;5029041;28;20196;-70
2023/03/12 04:11:43;;;;;;;0.10;0.10;;;-1.50;99.90;21.50;100084.00;;;;5024169;28;20230;-70
2023/03/12 04:14:13;;;;;;;0.13;0.13;;;-1.60;99.90;21.40;100065.00;;;;5023347;28;20217;-71
2023/03/12 04:16:44;;;;;;;0.10;0.10;;;-1.70;99.90;21.40;100084.00;;;;5024237;28;20207;-71
2023/03/12 04:19:12;;;;;;;0.10;0.10;;;-1.70;99.90;21.40;100115.00;;;;5023444;28;20192;-71
2023/03/12 04:21:40;;;;;;;0.20;0.20;;;-1.70;99.90;21.40;100054.00;;;;5025167;28;20202;-71
2023/03/12 04:24:16;;;;;;;0.20;0.20;;;-1.80;99.90;21.40;100012.00;;;;5029158;28;20226;-71
2023/03/12 04:26:45;;;;;;;0.10;0.10;;;-1.90;99.90;21.30;100083.00;;;;5026271;28;20261;-71
2023/03/12 04:29:15;;;;;;;0.10;0.10;;;-1.90;99.90;21.30;100027.00;;;;5040271;28;20223;-71
2023/03/12 04:31:43;;;;;;;0.10;0.10;;;-2.00;99.90;21.20;99961.00;;;;5026612;28;20223;-71
2023/03/12 04:34:11;;;;;;;0.20;0.20;;;-2.10;99.90;21.20;99992.00;;;;5024941;28;20219;-71
2023/03/12 04:36:42;;;;;;;0.10;0.10;;;-2.10;99.90;21.30;100024.00;;;;5018736;28;20215;-71
2023/03/12 04:39:10;;;;;;;0.10;0.10;;;-2.00;99.90;21.30;100022.00;;;;5034229;28;20196;-71
2023/03/12 04:41:40;;;;;;;0.10;0.10;;;-2.00;99.90;21.30;100099.00;;;;5027608;28;20305;-71
2023/03/12 04:44:11;;;;;;;0.20;0.20;;;-2.00;99.90;21.30;100132.00;;;;5028787;28;20254;-71
2023/03/12 04:46:41;;;;;;;0.10;0.10;;;-1.90;99.90;21.40;100216.00;;;;5018671;28;20203;-71
2023/03/12 04:49:12;;;;;;;0.10;0.10;;;-1.80;99.90;21.40;100243.00;;;;5031983;28;20201;-71
2023/03/12 04:51:41;;;;;;;0.20;0.20;;;-1.80;99.90;21.30;100212.00;;;;5024966;28;20207;-71
2023/03/12 04:54:10;;;;;;;0.10;0.10;;;-1.80;99.90;21.30;100180.00;;;;5029567;28;20277;-71
2023/03/12 04:56:41;;;;;;;0.10;0.10;;;-1.90;99.90;21.40;100182.00;;;;5023795;28;20291;-71
2023/03/12 04:59:09;;;;;;;0.20;0.20;;;-1.80;99.90;21.40;100206.00;;;;5029967;28;20573;-71
2023/03/12 05:01:37;;;;;;;0.10;0.10;;;-1.70;99.90;21.40;100215.00;;;;5021949;28;20207;-70
2023/03/12 05:04:12;;;;;;;0.20;0.20;;;-1.60;99.90;21.40;100245.00;;;;5032415;28;20302;-71
2023/03/12 05:06:40;;;;;;;0.20;0.20;;;-1.60;99.90;21.50;100247.00;;;;5025471;28;20211;-71
2023/03/12 05:09:08;;;;;;;0.13;0.13;;;-1.60;99.90;21.50;100269.00;;;;5025714;28;20200;-71
2023/03/12 05:11:37;;;;;;;0.10;0.10;;;-1.50;99.90;21.50;100216.00;;;;5024661;28;20231;-71
2023/03/12 05:14:09;;;;;;;0.20;0.20;;;-1.60;99.90;21.40;100218.00;;;;5027877;28;20219;-71
2023/03/12 05:16:38;;;;;;;0.20;0.20;;;-1.60;99.90;21.40;100206.00;;;;5019680;28;20211;-71
2023/03/12 05:19:06;;;;;;;0.10;0.10;;;-1.60;99.90;21.50;100209.00;;;;5029281;28;20563;-71
2023/03/12 05:21:35;;;;;;;0.10;0.10;;;-1.60;99.90;21.40;100175.00;;;;5028644;28;20669;-71
2023/03/12 05:24:04;;;;;;;0.20;0.20;;;-1.70;99.90;21.40;100210.00;;;;5021956;28;20310;-71
2023/03/12 05:26:33;;;;;;;0.13;0.13;;;-1.60;99.90;21.40;100192.00;;;;5023418;28;20218;-70
2023/03/12 05:29:11;;;;;;;0.10;0.10;;;-1.70;99.90;21.40;100200.00;;;;5029280;28;20206;-70
2023/03/12 05:31:39;;;;;;;0.20;0.20;;;-1.70;99.90;21.50;100184.00;;;;5025843;28;20222;-70
2023/03/12 05:34:11;;;;;;;0.10;0.10;;;-1.70;99.90;21.50;100216.00;;;;5029748;28;20573;-70
2023/03/12 05:36:41;;;;;;;0.20;0.20;;;-1.70;99.90;21.50;100193.00;;;;5019039;28;20311;-70
2023/03/12 05:39:09;;;;;;;0.20;0.20;;;-1.70;99.90;21.50;100208.00;;;;5032446;28;20195;-70
2023/03/12 05:41:38;;;;;;;0.10;0.10;;;-1.60;99.90;21.50;100119.00;;;;5027117;28;20203;-71
2023/03/12 05:44:18;;;;;;;0.20;0.20;;;-1.70;99.90;21.50;100079.00;;;;5022984;28;20227;-71
2023/03/12 05:46:51;;;;;;;0.10;0.10;;;-1.70;99.90;21.50;100066.00;;;;5022682;28;20199;-71
2023/03/12 05:49:20;;;;;;;0.10;0.10;;;-1.70;99.90;21.50;100109.00;;;;5034205;28;20214;-71
2023/03/12 05:51:49;;;;;;;0.10;0.10;;;-1.60;99.90;21.50;100195.00;;;;5017858;28;20642;-71
2023/03/12 05:54:19;;;;;;;0.10;0.10;;;-1.60;99.90;21.60;100218.00;;;;5023686;28;20474;-71
2023/03/12 05:56:50;;;;;;;0.30;0.30;;;-1.50;99.90;21.60;100220.00;;;;5023502;28;20257;-71
2023/03/12 05:59:21;;;;;;;0.10;0.10;;;-1.40;99.90;21.70;100211.00;;;;5019247;28;20291;-72
2023/03/12 06:01:50;;;;;;;0.10;0.10;;;-1.40;99.90;21.70;100161.00;;;;5023301;28;20213;-71
2023/03/12 06:04:18;;;;;;;0.13;0.13;;;-1.40;99.90;21.70;100204.00;;;;5017910;28;20212;-71
2023/03/12 06:06:47;;;;;;;0.10;0.10;;;-1.40;99.90;21.60;100123.00;;;;5024261;28;20214;-71
2023/03/12 06:09:15;;;;;;;0.10;0.10;;;-1.40;99.90;21.60;100106.00;;;;5023677;28;20203;-72
2023/03/12 06:11:43;;;;;;;0.10;0.10;;;-1.50;99.90;21.60;100104.00;;;;5025275;28;20210;-72
2023/03/12 06:14:11;;;;;;;0.10;0.10;;;-1.50;99.90;21.60;100198.00;;;;5033780;28;20572;-72
2023/03/12 06:16:41;;;;;;;0.10;0.10;;;-1.50;99.90;21.60;100218.00;;;;5034867;28;20198;-71
2023/03/12 06:19:13;;;;;;;0.20;0.20;;;-1.50;99.90;21.50;100220.00;;;;5033577;28;20205;-72
2023/03/12 06:21:44;;;;;;;0.10;0.10;;;-1.50;99.90;21.60;100260.00;;;;5016297;28;20256;-72
2023/03/12 06:24:13;;;;;;;0.10;0.10;;;-1.50;99.90;21.60;100330.00;;;;5022724;28;20697;-71
2023/03/12 06:27:04;;;;;;;0.20;0.20;;;-1.50;99.90;21.60;100326.00;;;;5019248;28;20208;-71
2023/03/12 06:29:32;;;;;;;0.10;0.10;;;-1.40;99.90;21.70;100349.00;;;;5029103;28;20199;-72
2023/03/12 06:32:01;;;;;;;0.10;0.10;;;-1.40;99.90;21.70;100320.00;;;;5029060;28;20199;-71
2023/03/12 06:34:29;;;;;;;0.20;0.20;;;-1.30;99.90;21.70;100340.00;;;;5026846;28;20282;-71
2023/03/12 06:36:57;;;;;;;0.10;0.10;;;-1.30;99.90;21.80;100344.00;;;;5021546;28;20687;-71
2023/03/12 06:39:25;;;;;;;0.10;0.10;;;-1.20;99.90;21.80;100366.00;;;;5023367;28;20573;-71
2023/03/12 06:41:54;;;;;;;0.10;0.10;;;-1.20;99.90;230.40;168199.00;;;;5026484;28;20568;-71
2023/03/12 06:44:22;;;;;;;0.10;0.10;;;-1.20;99.90;230.40;231737.00;;;;5032389;28;20265;-71
2023/03/12 06:46:51;;;;;;;0.20;0.20;;;-1.10;99.90;230.40;231737.00;;;;5020100;28;20199;-71
2023/03/12 06:49:20;;;;;;;0.13;0.13;;;-1.00;99.90;230.40;231737.00;;;;5027612;28;20203;-71
2023/03/12 06:51:48;;;;;;;0.10;0.10;;;-1.00;99.90;230.40;231737.00;;;;5025747;28;20207;-71
2023/03/12 06:54:16;;;;;;;0.10;0.10;;;-0.90;99.90;230.40;231737.00;;;;5053099;22;20702;-72
2023/03/12 06:56:44;;;;;;;0.10;0.10;;;-0.70;99.90;230.40;231737.00;;;;5050510;28;20271;-72
2023/03/12 06:59:12;;;;;;;0.10;0.10;;;-0.80;99.90;230.40;231737.00;;;;5053344;28;20199;-72
2023/03/12 07:01:40;;;;;;;0.10;0.10;;;-0.80;99.90;230.40;231737.00;;;;5051586;28;20248;-71
2023/03/12 07:04:08;;;;;;;0.10;0.10;;;-0.70;99.90;230.40;231737.00;;;;5048599;28;20218;-71
2023/03/12 07:06:37;;;;;;;0.10;0.10;;;-0.70;99.90;230.40;231737.00;;;;5040204;28;20254;-71
2023/03/12 07:09:06;;;;;;;0.10;0.10;;;-0.70;99.90;230.40;231737.00;;;;5042693;28;20447;-72
2023/03/12 07:11:34;;;;;;;0.10;0.10;;;-0.60;99.90;230.40;231737.00;;;;5046868;28;20190;-72
2023/03/12 07:14:02;;;;;;;0.10;0.10;;;-0.50;99.90;230.40;231737.00;;;;5054553;28;20677;-72
2023/03/12 07:16:30;;;;;;;0.20;0.20;;;-0.50;99.90;230.40;231737.00;;;;5047059;28;20377;-72
2023/03/12 07:18:58;;;;;;;0.10;0.10;;;-0.40;99.90;230.40;231737.00;;;;5054209;28;20609;-72
2023/03/12 07:21:26;;;;;;;0.10;0.10;;;-0.30;99.90;230.40;231737.00;;;;5043311;28;20629;-72
2023/03/12 07:23:55;;;;;;;0.10;0.10;;;-0.30;99.90;230.40;231737.00;;;;5051108;28;20198;-72
2023/03/12 07:26:23;;;;;;;0.10;0.10;;;-0.20;99.90;230.40;231737.00;;;;5049114;28;20202;-72
2023/03/12 07:28:51;;;;;;;0.10;0.10;;;-0.10;99.90;230.40;231737.00;;;;5052424;28;20645;-72
2023/03/12 07:31:19;;;;;;;0.10;0.10;;;-0.10;99.90;230.40;231737.00;;;;5051582;28;20608;-72
2023/03/12 07:33:47;;;;;;;0.10;0.10;;;0.00;99.90;230.40;231737.00;;;;5050508;28;20793;-72
2023/03/12 07:36:16;;;;;;;0.10;0.10;;;0.10;99.90;230.40;231737.00;;;;5043441;28;20298;-72
2023/03/12 07:38:44;;;;;;;0.10;0.10;;;0.20;99.90;230.40;231737.00;;;;5050354;28;20684;-72
2023/03/12 07:41:14;;;;;;;0.10;0.10;;;0.20;99.90;230.40;231737.00;;;;5048385;28;20198;-76
2023/03/12 07:43:42;;;;;;;0.10;0.10;;;0.30;99.90;230.40;231737.00;;;;5061643;28;20336;-76
2023/03/12 07:46:10;;;;;;;0.10;0.10;;;0.40;99.90;230.40;231737.00;;;;5046420;28;20198;-75
2023/03/12 07:48:38;;;;;;;0.10;0.10;;;0.40;99.90;230.40;231737.00;;;;5045759;28;20195;-76
2023/03/12 07:51:10;;;;;;;0.20;0.20;;;0.40;99.90;230.40;231737.00;;;;5054760;28;20440;-69
2023/03/12 07:53:38;;;;;;;0.10;0.10;;;0.40;99.90;230.40;231737.00;;;;5047218;28;20288;-75
2023/03/12 07:56:07;;;;;;;0.10;0.10;;;0.50;99.90;230.40;231737.00;;;;5057029;28;20198;-75
2023/03/12 07:58:37;;;;;;;0.10;0.10;;;0.60;99.90;230.40;231737.00;;;;5058536;28;20447;-75
2023/03/12 08:01:06;;;;;;;0.10;0.10;;;0.70;99.90;230.40;231737.00;;;;5034255;28;20249;-71
2023/03/12 08:03:34;;;;;;;0.10;0.10;;;0.70;99.90;230.40;231737.00;;;;5046922;28;20205;-71
2023/03/12 08:06:05;;;;;;;0.10;0.10;;;0.80;99.90;230.40;231737.00;;;;5037398;28;20622;-71
2023/03/12 08:08:34;;;;;;;0.10;0.10;;;0.80;99.90;230.40;231737.00;;;;5039772;28;20210;-71
2023/03/12 08:11:04;;;;;;;0.10;0.10;;;0.80;99.90;230.40;231737.00;;;;5047330;28;20241;-71
2023/03/12 08:13:33;;;;;;;0.10;0.10;;;0.90;99.90;230.40;231737.00;;;;5048018;28;20770;-71
2023/03/12 08:16:02;;;;;;;0.10;0.10;;;1.00;99.90;230.40;231737.00;;;;5044216;28;20306;-71
2023/03/12 08:18:30;;;;;;;0.10;0.10;;;1.10;99.90;230.40;231737.00;;;;5044466;28;20276;-71
2023/03/12 08:20:58;;;;;;;0.10;0.10;;;1.20;99.90;230.40;231737.00;;;;5040647;28;20206;-71
2023/03/12 08:23:26;;;;;;;0.10;0.10;;;1.30;99.90;230.40;231737.00;;;;5042807;28;20202;-71
2023/03/12 08:25:55;;;;;;;0.10;0.10;;;1.30;99.90;230.40;231737.00;;;;5038966;28;20270;-71
2023/03/12 08:28:24;;;;;;;0.10;0.10;;;1.40;99.90;230.40;231737.00;;;;5044600;28;20576;-71
2023/03/12 08:30:54;;;;;;;0.10;0.10;;;1.40;99.90;230.40;231737.00;;;;5043601;28;20202;-71
2023/03/12 08:33:24;;;;;;;0.10;0.10;;;1.50;99.90;230.40;231737.00;;;;5049639;28;20222;-71
2023/03/12 08:35:52;;;;;;;0.10;0.10;;;1.60;99.90;230.40;231737.00;;;;5042254;28;20226;-71
2023/03/12 08:38:20;;;;;;;0.10;0.10;;;1.70;99.90;230.40;231737.00;;;;5038504;28;20600;-71
2023/03/12 08:40:56;;;;;;;0.10;0.10;;;1.80;99.90;230.40;231737.00;;;;5043413;28;20700;-70
2023/03/12 08:43:25;;;;;;;0.10;0.10;;;1.80;99.90;230.40;231737.00;;;;5041015;28;20244;-70
2023/03/12 08:45:57;;;;;;;0.10;0.10;;;1.90;99.90;230.40;231737.00;;;;5040562;28;20217;-70
2023/03/12 08:48:27;;;;;;;0.10;0.10;;;2.10;99.90;230.40;231737.00;;;;5041908;28;20206;-70
2023/03/12 08:50:56;;;;;;;0.10;0.10;;;2.20;99.90;230.40;231737.00;;;;5047429;28;20666;-70
2023/03/12 08:53:25;;;;;;;0.10;0.10;;;2.30;99.90;230.40;231737.00;;;;5043421;28;20703;-70
2023/03/12 08:55:54;;;;;;;0.10;0.10;;;2.40;99.90;230.40;231737.00;;;;5041578;28;20405;-70
2023/03/12 08:58:24;;;;;;;0.10;0.10;;;2.40;99.90;230.40;231737.00;;;;5050302;28;20645;-70
2023/03/12 09:00:54;;;;;;;0.10;0.10;;;2.50;99.90;230.40;231737.00;;;;5045112;28;20229;-70
2023/03/12 09:03:23;;;;;;;0.10;0.10;;;2.60;99.90;230.40;231737.00;;;;5053036;28;20244;-70
2023/03/12 09:06:04;;;;;;;0.10;0.10;;;2.60;99.90;230.40;231737.00;;;;5046230;28;20222;-70
2023/03/12 09:08:32;;;;;;;0.10;0.10;;;2.70;99.90;230.40;231737.00;;;;5051910;28;20285;-70
2023/03/12 09:11:01;;;;;;;0.08;0.08;;;2.70;99.90;230.40;231737.00;;;;5046465;28;20289;-70
2023/03/12 09:13:29;;;;;;;0.10;0.10;;;2.70;99.90;230.40;231737.00;;;;5044460;28;20202;-70
2023/03/12 09:16:17;;;;;;;0.10;0.10;;;2.80;99.90;230.40;231737.00;;;;5038773;28;20275;-70
2023/03/12 09:18:45;;;;;;;0.10;0.10;;;2.90;99.90;230.40;231737.00;;;;5054110;28;20213;-70
2023/03/12 09:21:15;;;;;;;0.03;0.03;;;3.00;99.90;230.40;231737.00;;;;5038831;28;20252;-70
2023/03/12 09:23:43;;;;;;;0.10;0.10;;;3.10;99.90;230.40;231737.00;;;;5051311;28;20197;-70
2023/03/12 09:26:11;;;;;;;0.10;0.10;;;3.10;99.90;230.40;231737.00;;;;5043238;28;20248;-70
2023/03/12 09:28:41;;;;;;;0.10;0.10;;;3.30;99.90;230.40;231737.00;;;;5052257;28;20722;-70
2023/03/12 09:31:09;;;;;;;0.10;0.10;;;3.30;99.90;230.40;231737.00;;;;5050026;28;20256;-70
2023/03/12 09:33:37;;;;;;;0.10;0.10;;;3.50;99.90;230.40;231737.00;;;;5047235;28;20198;-70
2023/03/12 09:36:06;;;;;;;0.10;0.10;;;3.60;99.90;230.40;231737.00;;;;5042162;28;20210;-70
2023/03/12 09:38:36;;;;;;;0.10;0.10;;;3.70;99.90;230.40;231737.00;;;;5046279;28;20217;-70
2023/03/12 09:41:11;;;;;;;0.10;0.10;;;3.80;99.90;230.40;231737.00;;;;5036281;28;20273;-70
2023/03/12 09:43:45;;;;;;;0.10;0.10;;;3.70;99.90;230.40;231737.00;;;;5042157;28;20221;-70
2023/03/12 09:46:32;;;;;;;0.10;0.10;;;3.70;99.90;230.40;231737.00;;;;5040485;28;20669;-70
2023/03/12 09:49:06;;;;;;;0.10;0.10;;;3.80;99.90;230.40;231737.00;;;;5048784;28;20198;-70
2023/03/12 09:51:40;;;;;;;0.10;0.10;;;3.90;99.90;230.40;231737.00;;;;5034899;28;20253;-71
2023/03/12 09:54:26;;;;;;;0.10;0.10;;;3.80;99.90;230.40;231737.00;;;;5040393;28;20218;-70
2023/03/12 09:57:02;;;;;;;0.10;0.10;;;3.90;99.90;230.40;231737.00;;;;5042976;28;20602;-72
2023/03/12 09:59:30;;;;;;;0.10;0.10;;;3.90;99.90;230.40;231737.00;;;;5038716;28;20245;-71
2023/03/12 10:02:02;;;;;;;0.10;0.10;;;3.90;99.90;230.40;231737.00;;;;5034197;28;20194;-71
2023/03/12 10:04:49;;;;;;;0.10;0.10;;;4.00;99.90;230.40;231737.00;;;;5041330;28;20275;-71
2023/03/12 10:07:35;;;;;;;0.10;0.10;;;4.20;99.90;230.40;231737.00;;;;5038349;28;20245;-71
2023/03/12 10:10:40;;;;;;;0.10;0.10;;;4.30;99.90;230.40;231737.00;;;;5047233;28;20277;-71
2023/03/12 10:13:24;;;;;;;0.10;0.10;;;4.20;99.90;230.40;231737.00;;;;5036153;28;20481;-71
2023/03/12 10:16:09;;;;;;;0.10;0.10;;;4.20;99.90;230.40;231737.00;;;;5044661;28;20222;-71
2023/03/12 10:18:57;;;;;;;0.10;0.10;;;4.40;99.90;230.40;231737.00;;;;5046757;28;20199;-71
2023/03/12 10:21:36;;;;;;;0.05;0.05;;;4.60;99.90;230.40;231737.00;;;;5042243;28;20190;-71
2023/03/12 10:24:36;;;;;;;0.00;0.00;;;4.60;99.90;230.40;231737.00;;;;5043692;28;20268;-71
2023/03/12 10:27:13;;;;;;;0.10;0.10;;;4.60;99.90;230.40;231737.00;;;;5044796;28;20604;-71
2023/03/12 10:29:46;;;;;;;0.10;0.10;;;4.60;99.90;230.40;231737.00;;;;5045631;28;20207;-71
2023/03/12 10:32:21;;;;;;;0.10;0.10;;;4.60;99.90;230.40;231737.00;;;;5050607;28;20195;-71
2023/03/12 10:34:54;;;;;;;0.10;0.10;;;4.60;99.90;230.40;231737.00;;;;5046976;28;20234;-71
2023/03/12 10:37:28;;;;;;;0.10;0.10;;;4.60;99.90;230.40;231737.00;;;;5038568;28;20385;-71
2023/03/12 10:39:59;;;;;;;0.10;0.10;;;4.50;99.90;230.40;231737.00;;;;5044286;28;20190;-71
2023/03/12 10:42:29;;;;;;;0.10;0.10;;;4.50;99.90;230.40;231737.00;;;;5047328;28;20194;-71
2023/03/12 10:45:10;;;;;;;0.10;0.10;;;4.60;99.90;230.40;231737.00;;;;5044964;28;20226;-71
2023/03/12 10:47:39;;;;;;;0.10;0.10;;;4.70;99.90;230.40;231737.00;;;;5045917;28;20197;-71
2023/03/12 10:50:17;;;;;;;0.10;0.10;;;4.70;99.90;230.40;231737.00;;;;5048923;28;20206;-71
2023/03/12 10:52:47;;;;;;;0.10;0.10;;;4.70;99.90;230.40;231737.00;;;;5041881;28;20202;-71
2023/03/12 10:55:25;;;;;;;0.08;0.08;;;4.70;99.90;230.40;231737.00;;;;5036595;28;20223;-71
2023/03/12 10:57:54;;;;;;;0.10;0.10;;;4.70;99.90;230.40;231737.00;;;;5042215;28;20202;-71
2023/03/12 11:00:25;;;;;;;0.10;0.10;;;4.70;99.90;230.40;231737.00;;;;5042827;28;20252;-71
2023/03/12 11:03:02;;;;;;;0.03;0.03;;;4.70;99.90;230.40;231737.00;;;;5040160;28;20203;-71